sensor_id;sensor_type;location;lat;lon;timestamp;temperature;humidity
33761;DHT22;20084;47.912;19.044;2023-05-07T00:00:46;13.60;99.90
33761;DHT22;20084;47.912;19.044;2023-05-07T00:03:12;13.60;99.90
33761;DHT22;20084;47.912;19.044;2023-05-07T00:05:39;13.60;99.90
33761;DHT22;20084;47.912;19.044;2023-05-07T00:08:04;13.60;99.90
33761;DHT22;20084;47.912;19.044;2023-05-07T00:10:30;13.60;99.90
33761;DHT22;20084;47.912;19.044;2023-05-07T00:12:55;13.70;99.90
33761;DHT22;20084;47.912;19.044;2023-05-07T00:15:21;13.70;99.90
33761;DHT22;20084;47.912;19.044;2023-05-07T00:17:46;13.70;99.90
33761;DHT22;20084;47.912;19.044;2023-05-07T00:20:12;13.70;99.90
33761;DHT22;20084;47.912;19.044;2023-05-07T00:22:37;13.70;99.90
33761;DHT22;20084;47.912;19.044;2023-05-07T00:25:03;13.70;99.90
33761;DHT22;20084;47.912;19.044;2023-05-07T00:27:29;13.70;99.90
33761;DHT22;20084;47.912;19.044;2023-05-07T00:29:54;13.80;99.90
33761;DHT22;20084;47.912;19.044;2023-05-07T00:32:20;13.70;99.90
33761;DHT22;20084;47.912;19.044;2023-05-07T00:34:46;13.70;99.90
33761;DHT22;20084;47.912;19.044;2023-05-07T00:37:11;13.70;99.90
33761;DHT22;20084;47.912;19.044;2023-05-07T00:39:37;13.70;99.90
33761;DHT22;20084;47.912;19.044;2023-05-07T00:42:02;13.70;99.90
33761;DHT22;20084;47.912;19.044;2023-05-07T00:44:28;13.50;99.90
33761;DHT22;20084;47.912;19.044;2023-05-07T00:46:53;13.40;99.90
33761;DHT22;20084;47.912;19.044;2023-05-07T00:49:19;13.40;99.90
33761;DHT22;20084;47.912;19.044;2023-05-07T00:51:45;13.40;99.90
33761;DHT22;20084;47.912;19.044;2023-05-07T00:54:10;13.40;99.90
33761;DHT22;20084;47.912;19.044;2023-05-07T00:56:36;13.50;99.90
33761;DHT22;20084;47.912;19.044;2023-05-07T00:59:02;13.50;99.90
33761;DHT22;20084;47.912;19.044;2023-05-07T01:01:28;13.50;99.90
33761;DHT22;20084;47.912;19.044;2023-05-07T01:03:53;13.60;99.90
33761;DHT22;20084;47.912;19.044;2023-05-07T01:06:19;13.60;99.90
33761;DHT22;20084;47.912;19.044;2023-05-07T01:08:46;13.50;99.90
33761;DHT22;20084;47.912;19.044;2023-05-07T01:11:12;13.60;99.90
33761;DHT22;20084;47.912;19.044;2023-05-07T01:13:38;13.60;99.90
33761;DHT22;20084;47.912;19.044;2023-05-07T01:16:05;13.50;99.90
33761;DHT22;20084;47.912;19.044;2023-05-07T01:18:30;13.30;99.90
33761;DHT22;20084;47.912;19.044;2023-05-07T01:20:56;13.40;99.90
33761;DHT22;20084;47.912;19.044;2023-05-07T01:23:23;13.40;99.90
33761;DHT22;20084;47.912;19.044;2023-05-07T01:25:52;13.30;99.90
33761;DHT22;20084;47.912;19.044;2023-05-07T01:28:18;13.20;99.90
33761;DHT22;20084;47.912;19.044;2023-05-07T01:30:44;13.30;99.90
33761;DHT22;20084;47.912;19.044;2023-05-07T01:33:13;13.40;99.90
33761;DHT22;20084;47.912;19.044;2023-05-07T01:35:43;13.40;99.90
33761;DHT22;20084;47.912;19.044;2023-05-07T01:38:10;13.30;99.90
33761;DHT22;20084;47.912;19.044;2023-05-07T01:40:36;13.30;99.90
33761;DHT22;20084;47.912;19.044;2023-05-07T01:43:02;13.40;99.90
33761;DHT22;20084;47.912;19.044;2023-05-07T01:45:28;13.40;99.90
33761;DHT22;20084;47.912;19.044;2023-05-07T01:47:53;13.20;99.90
33761;DHT22;20084;47.912;19.044;2023-05-07T01:50:19;13.10;99.90
33761;DHT22;20084;47.912;19.044;2023-05-07T01:52:47;13.10;99.90
33761;DHT22;20084;47.912;19.044;2023-05-07T01:55:12;13.20;99.90
33761;DHT22;20084;47.912;19.044;2023-05-07T01:57:38;13.20;99.90
33761;DHT22;20084;47.912;19.044;2023-05-07T02:00:04;13.10;99.90
33761;DHT22;20084;47.912;19.044;2023-05-07T02:02:30;13.10;99.90
33761;DHT22;20084;47.912;19.044;2023-05-07T02:04:56;13.10;99.90
33761;DHT22;20084;47.912;19.044;2023-05-07T02:07:21;13.10;99.90
33761;DHT22;20084;47.912;19.044;2023-05-07T02:09:47;13.10;99.90
33761;DHT22;20084;47.912;19.044;2023-05-07T02:12:12;13.10;99.90
33761;DHT22;20084;47.912;19.044;2023-05-07T02:14:38;13.10;99.90
33761;DHT22;20084;47.912;19.044;2023-05-07T02:17:03;13.20;99.90
33761;DHT22;20084;47.912;19.044;2023-05-07T02:19:29;13.30;99.90
33761;DHT22;20084;47.912;19.044;2023-05-07T02:21:55;13.20;99.90
33761;DHT22;20084;47.912;19.044;2023-05-07T02:24:20;13.20;99.90
33761;DHT22;20084;47.912;19.044;2023-05-07T02:26:46;13.30;99.90
33761;DHT22;20084;47.912;19.044;2023-05-07T02:29:12;13.30;99.90
33761;DHT22;20084;47.912;19.044;2023-05-07T02:31:37;13.40;99.90
33761;DHT22;20084;47.912;19.044;2023-05-07T02:34:03;13.50;99.90
33761;DHT22;20084;47.912;19.044;2023-05-07T02:36:29;13.50;99.90
33761;DHT22;20084;47.912;19.044;2023-05-07T02:38:54;13.60;99.90
33761;DHT22;20084;47.912;19.044;2023-05-07T02:41:20;13.60;99.90
33761;DHT22;20084;47.912;19.044;2023-05-07T02:43:46;13.70;99.90
33761;DHT22;20084;47.912;19.044;2023-05-07T02:46:11;13.70;99.90
33761;DHT22;20084;47.912;19.044;2023-05-07T02:48:37;13.80;99.90
33761;DHT22;20084;47.912;19.044;2023-05-07T02:51:02;13.80;99.90
33761;DHT22;20084;47.912;19.044;2023-05-07T02:53:28;13.80;99.90
33761;DHT22;20084;47.912;19.044;2023-05-07T02:55:58;13.90;99.90
33761;DHT22;20084;47.912;19.044;2023-05-07T02:58:24;13.90;99.90
33761;DHT22;20084;47.912;19.044;2023-05-07T03:00:50;14.00;99.90
33761;DHT22;20084;47.912;19.044;2023-05-07T03:03:16;14.10;99.90
33761;DHT22;20084;47.912;19.044;2023-05-07T03:05:41;14.20;99.90
33761;DHT22;20084;47.912;19.044;2023-05-07T03:08:07;14.30;99.90
33761;DHT22;20084;47.912;19.044;2023-05-07T03:10:33;14.30;99.90
33761;DHT22;20084;47.912;19.044;2023-05-07T03:12:58;14.40;99.90
33761;DHT22;20084;47.912;19.044;2023-05-07T03:15:24;14.40;99.90
33761;DHT22;20084;47.912;19.044;2023-05-07T03:17:49;14.60;99.90
33761;DHT22;20084;47.912;19.044;2023-05-07T03:20:15;14.60;99.90
33761;DHT22;20084;47.912;19.044;2023-05-07T03:22:40;14.70;99.90
33761;DHT22;20084;47.912;19.044;2023-05-07T03:25:06;14.70;99.90
33761;DHT22;20084;47.912;19.044;2023-05-07T03:27:31;14.70;99.90
33761;DHT22;20084;47.912;19.044;2023-05-07T03:29:59;14.70;99.90
33761;DHT22;20084;47.912;19.044;2023-05-07T03:32:25;14.80;99.90
33761;DHT22;20084;47.912;19.044;2023-05-07T03:34:50;14.80;99.90
33761;DHT22;20084;47.912;19.044;2023-05-07T03:37:16;14.80;99.90
33761;DHT22;20084;47.912;19.044;2023-05-07T03:39:41;14.80;99.90
33761;DHT22;20084;47.912;19.044;2023-05-07T03:42:07;14.80;99.90
33761;DHT22;20084;47.912;19.044;2023-05-07T03:44:32;14.80;99.90
33761;DHT22;20084;47.912;19.044;2023-05-07T03:46:58;14.80;99.90
33761;DHT22;20084;47.912;19.044;2023-05-07T03:49:23;14.70;99.90
33761;DHT22;20084;47.912;19.044;2023-05-07T03:51:49;14.70;99.90
33761;DHT22;20084;47.912;19.044;2023-05-07T03:54:14;14.70;99.90
33761;DHT22;20084;47.912;19.044;2023-05-07T03:56:40;14.60;99.90
33761;DHT22;20084;47.912;19.044;2023-05-07T03:59:05;14.50;99.90
33761;DHT22;20084;47.912;19.044;2023-05-07T04:01:31;14.40;99.90
33761;DHT22;20084;47.912;19.044;2023-05-07T04:03:56;14.40;99.90
33761;DHT22;20084;47.912;19.044;2023-05-07T04:06:22;14.40;99.90
33761;DHT22;20084;47.912;19.044;2023-05-07T04:08:47;14.40;99.90
33761;DHT22;20084;47.912;19.044;2023-05-07T04:11:13;14.50;99.90
33761;DHT22;20084;47.912;19.044;2023-05-07T04:13:38;14.50;99.90
33761;DHT22;20084;47.912;19.044;2023-05-07T04:16:04;14.50;99.90
33761;DHT22;20084;47.912;19.044;2023-05-07T04:18:30;14.50;99.90
33761;DHT22;20084;47.912;19.044;2023-05-07T04:20:56;14.60;99.90
33761;DHT22;20084;47.912;19.044;2023-05-07T04:23:21;14.60;99.90
33761;DHT22;20084;47.912;19.044;2023-05-07T04:25:47;14.60;99.90
33761;DHT22;20084;47.912;19.044;2023-05-07T04:28:12;14.60;99.90
33761;DHT22;20084;47.912;19.044;2023-05-07T04:30:38;14.60;99.90
33761;DHT22;20084;47.912;19.044;2023-05-07T04:33:04;14.50;99.90
33761;DHT22;20084;47.912;19.044;2023-05-07T04:35:29;14.40;99.90
33761;DHT22;20084;47.912;19.044;2023-05-07T04:37:55;14.30;99.90
33761;DHT22;20084;47.912;19.044;2023-05-07T04:40:20;14.30;99.90
33761;DHT22;20084;47.912;19.044;2023-05-07T04:42:46;14.40;99.90
33761;DHT22;20084;47.912;19.044;2023-05-07T04:45:11;14.30;99.90
33761;DHT22;20084;47.912;19.044;2023-05-07T04:47:38;14.40;99.90
33761;DHT22;20084;47.912;19.044;2023-05-07T04:50:03;14.40;99.90
33761;DHT22;20084;47.912;19.044;2023-05-07T04:52:29;14.40;99.90
33761;DHT22;20084;47.912;19.044;2023-05-07T04:54:55;14.50;99.90
33761;DHT22;20084;47.912;19.044;2023-05-07T04:57:21;14.60;99.90
33761;DHT22;20084;47.912;19.044;2023-05-07T04:59:46;14.60;99.90
33761;DHT22;20084;47.912;19.044;2023-05-07T05:02:12;14.70;99.90
33761;DHT22;20084;47.912;19.044;2023-05-07T05:04:37;14.80;99.90
33761;DHT22;20084;47.912;19.044;2023-05-07T05:07:03;14.80;99.90
33761;DHT22;20084;47.912;19.044;2023-05-07T05:09:31;14.90;99.90
33761;DHT22;20084;47.912;19.044;2023-05-07T05:11:57;15.00;99.90
33761;DHT22;20084;47.912;19.044;2023-05-07T05:14:22;15.00;99.90
33761;DHT22;20084;47.912;19.044;2023-05-07T05:16:48;15.10;99.90
33761;DHT22;20084;47.912;19.044;2023-05-07T05:19:13;15.10;99.90
33761;DHT22;20084;47.912;19.044;2023-05-07T05:21:38;15.20;99.90
33761;DHT22;20084;47.912;19.044;2023-05-07T05:24:04;15.20;99.90
33761;DHT22;20084;47.912;19.044;2023-05-07T05:26:30;15.30;99.90
33761;DHT22;20084;47.912;19.044;2023-05-07T05:28:55;15.40;99.90
33761;DHT22;20084;47.912;19.044;2023-05-07T05:31:21;15.60;99.90
33761;DHT22;20084;47.912;19.044;2023-05-07T05:33:46;15.70;99.90
33761;DHT22;20084;47.912;19.044;2023-05-07T05:36:12;15.70;99.90
33761;DHT22;20084;47.912;19.044;2023-05-07T05:38:38;15.80;99.90
33761;DHT22;20084;47.912;19.044;2023-05-07T05:41:04;15.90;99.90
33761;DHT22;20084;47.912;19.044;2023-05-07T05:43:29;16.00;99.90
33761;DHT22;20084;47.912;19.044;2023-05-07T05:45:55;16.00;99.90
33761;DHT22;20084;47.912;19.044;2023-05-07T05:48:21;16.00;99.90
33761;DHT22;20084;47.912;19.044;2023-05-07T05:50:46;16.00;99.90
33761;DHT22;20084;47.912;19.044;2023-05-07T05:53:12;16.10;99.90
33761;DHT22;20084;47.912;19.044;2023-05-07T05:55:37;16.10;99.90
33761;DHT22;20084;47.912;19.044;2023-05-07T05:58:03;16.20;99.90
33761;DHT22;20084;47.912;19.044;2023-05-07T06:00:28;16.30;99.90
33761;DHT22;20084;47.912;19.044;2023-05-07T06:02:54;16.40;99.90
33761;DHT22;20084;47.912;19.044;2023-05-07T06:05:20;16.50;99.90
33761;DHT22;20084;47.912;19.044;2023-05-07T06:07:46;16.60;99.90
33761;DHT22;20084;47.912;19.044;2023-05-07T06:10:11;16.70;99.90
33761;DHT22;20084;47.912;19.044;2023-05-07T06:12:37;16.70;99.90
33761;DHT22;20084;47.912;19.044;2023-05-07T06:15:02;16.90;99.90
33761;DHT22;20084;47.912;19.044;2023-05-07T06:17:28;17.00;99.90
33761;DHT22;20084;47.912;19.044;2023-05-07T06:19:54;17.20;99.90
33761;DHT22;20084;47.912;19.044;2023-05-07T06:22:19;17.40;99.90
33761;DHT22;20084;47.912;19.044;2023-05-07T06:24:45;17.60;99.90
33761;DHT22;20084;47.912;19.044;2023-05-07T06:27:11;17.70;99.90
33761;DHT22;20084;47.912;19.044;2023-05-07T06:29:36;17.80;99.90
33761;DHT22;20084;47.912;19.044;2023-05-07T06:32:08;17.80;99.90
33761;DHT22;20084;47.912;19.044;2023-05-07T06:34:34;17.80;99.90
33761;DHT22;20084;47.912;19.044;2023-05-07T06:36:59;17.80;99.90
33761;DHT22;20084;47.912;19.044;2023-05-07T06:39:25;17.90;99.90
33761;DHT22;20084;47.912;19.044;2023-05-07T06:41:50;18.10;99.90
33761;DHT22;20084;47.912;19.044;2023-05-07T06:44:16;18.10;99.90
33761;DHT22;20084;47.912;19.044;2023-05-07T06:46:41;18.20;99.90
33761;DHT22;20084;47.912;19.044;2023-05-07T06:49:07;18.30;99.90
33761;DHT22;20084;47.912;19.044;2023-05-07T06:51:32;18.40;99.90
33761;DHT22;20084;47.912;19.044;2023-05-07T06:53:58;18.50;99.90
33761;DHT22;20084;47.912;19.044;2023-05-07T06:56:24;18.60;99.90
33761;DHT22;20084;47.912;19.044;2023-05-07T06:58:50;18.70;99.90
33761;DHT22;20084;47.912;19.044;2023-05-07T07:01:15;18.80;99.90
33761;DHT22;20084;47.912;19.044;2023-05-07T07:03:41;18.90;99.90
33761;DHT22;20084;47.912;19.044;2023-05-07T07:06:06;19.00;99.90
33761;DHT22;20084;47.912;19.044;2023-05-07T07:08:32;19.20;99.90
33761;DHT22;20084;47.912;19.044;2023-05-07T07:10:57;19.20;99.90
33761;DHT22;20084;47.912;19.044;2023-05-07T07:13:23;19.30;99.90
33761;DHT22;20084;47.912;19.044;2023-05-07T07:15:48;19.40;99.90
33761;DHT22;20084;47.912;19.044;2023-05-07T07:18:14;19.50;99.90
33761;DHT22;20084;47.912;19.044;2023-05-07T07:20:40;19.50;99.90
33761;DHT22;20084;47.912;19.044;2023-05-07T07:23:06;19.60;99.90
33761;DHT22;20084;47.912;19.044;2023-05-07T07:25:31;19.70;99.90
33761;DHT22;20084;47.912;19.044;2023-05-07T07:27:57;19.80;99.90
33761;DHT22;20084;47.912;19.044;2023-05-07T07:30:22;19.80;99.90
33761;DHT22;20084;47.912;19.044;2023-05-07T07:32:48;19.80;99.90
33761;DHT22;20084;47.912;19.044;2023-05-07T07:35:13;19.90;99.90
33761;DHT22;20084;47.912;19.044;2023-05-07T07:37:39;19.90;99.90
33761;DHT22;20084;47.912;19.044;2023-05-07T07:40:05;19.90;99.90
33761;DHT22;20084;47.912;19.044;2023-05-07T07:42:30;19.90;99.90
33761;DHT22;20084;47.912;19.044;2023-05-07T07:44:56;19.90;99.90
33761;DHT22;20084;47.912;19.044;2023-05-07T07:47:22;19.90;99.90
33761;DHT22;20084;47.912;19.044;2023-05-07T07:49:48;20.00;99.90
33761;DHT22;20084;47.912;19.044;2023-05-07T07:52:13;20.10;99.90
33761;DHT22;20084;47.912;19.044;2023-05-07T07:54:39;20.30;99.90
33761;DHT22;20084;47.912;19.044;2023-05-07T07:57:04;20.30;99.90
33761;DHT22;20084;47.912;19.044;2023-05-07T07:59:30;20.40;99.90
33761;DHT22;20084;47.912;19.044;2023-05-07T08:01:56;20.40;99.90
33761;DHT22;20084;47.912;19.044;2023-05-07T08:04:22;20.50;99.90
33761;DHT22;20084;47.912;19.044;2023-05-07T08:06:48;20.60;99.90
33761;DHT22;20084;47.912;19.044;2023-05-07T08:09:13;20.70;99.90
33761;DHT22;20084;47.912;19.044;2023-05-07T08:11:39;20.70;99.90
33761;DHT22;20084;47.912;19.044;2023-05-07T08:14:04;20.80;99.90
33761;DHT22;20084;47.912;19.044;2023-05-07T08:16:30;20.90;99.90
33761;DHT22;20084;47.912;19.044;2023-05-07T08:18:55;20.80;99.90
33761;DHT22;20084;47.912;19.044;2023-05-07T08:21:21;20.70;99.90
33761;DHT22;20084;47.912;19.044;2023-05-07T08:23:47;20.80;99.90
33761;DHT22;20084;47.912;19.044;2023-05-07T08:26:12;20.90;99.90
33761;DHT22;20084;47.912;19.044;2023-05-07T08:28:38;20.80;99.90
33761;DHT22;20084;47.912;19.044;2023-05-07T08:31:04;20.60;99.90
33761;DHT22;20084;47.912;19.044;2023-05-07T08:33:30;20.60;99.90
33761;DHT22;20084;47.912;19.044;2023-05-07T08:35:56;20.50;99.90
33761;DHT22;20084;47.912;19.044;2023-05-07T08:38:21;20.40;99.90
33761;DHT22;20084;47.912;19.044;2023-05-07T08:40:47;20.40;99.90
33761;DHT22;20084;47.912;19.044;2023-05-07T08:43:13;20.50;99.90
33761;DHT22;20084;47.912;19.044;2023-05-07T08:45:39;20.60;99.90
33761;DHT22;20084;47.912;19.044;2023-05-07T08:48:05;20.60;99.90
33761;DHT22;20084;47.912;19.044;2023-05-07T08:50:35;20.60;99.90
33761;DHT22;20084;47.912;19.044;2023-05-07T08:53:00;20.70;99.90
33761;DHT22;20084;47.912;19.044;2023-05-07T08:55:28;20.70;99.90
33761;DHT22;20084;47.912;19.044;2023-05-07T08:57:53;20.60;99.90
33761;DHT22;20084;47.912;19.044;2023-05-07T09:00:19;20.60;99.90
33761;DHT22;20084;47.912;19.044;2023-05-07T09:02:44;20.50;99.90
33761;DHT22;20084;47.912;19.044;2023-05-07T09:05:10;20.50;99.90
33761;DHT22;20084;47.912;19.044;2023-05-07T09:07:36;20.40;99.90
33761;DHT22;20084;47.912;19.044;2023-05-07T09:10:04;20.30;99.90
33761;DHT22;20084;47.912;19.044;2023-05-07T09:12:30;20.10;99.90
33761;DHT22;20084;47.912;19.044;2023-05-07T09:14:56;20.10;99.90
33761;DHT22;20084;47.912;19.044;2023-05-07T09:17:22;20.00;99.90
33761;DHT22;20084;47.912;19.044;2023-05-07T09:19:47;20.00;99.90
33761;DHT22;20084;47.912;19.044;2023-05-07T09:22:13;20.10;99.90
33761;DHT22;20084;47.912;19.044;2023-05-07T09:24:38;20.20;99.90
33761;DHT22;20084;47.912;19.044;2023-05-07T09:27:04;20.40;99.90
33761;DHT22;20084;47.912;19.044;2023-05-07T09:29:30;20.40;99.90
33761;DHT22;20084;47.912;19.044;2023-05-07T09:32:09;20.50;99.90
33761;DHT22;20084;47.912;19.044;2023-05-07T09:34:35;20.70;99.90
33761;DHT22;20084;47.912;19.044;2023-05-07T09:37:01;20.90;99.90
33761;DHT22;20084;47.912;19.044;2023-05-07T09:39:38;21.10;99.90
33761;DHT22;20084;47.912;19.044;2023-05-07T09:42:03;21.20;99.90
33761;DHT22;20084;47.912;19.044;2023-05-07T09:44:31;21.20;99.90
33761;DHT22;20084;47.912;19.044;2023-05-07T09:46:56;21.20;99.90
33761;DHT22;20084;47.912;19.044;2023-05-07T09:49:24;21.00;99.90
33761;DHT22;20084;47.912;19.044;2023-05-07T09:51:55;20.90;99.90
33761;DHT22;20084;47.912;19.044;2023-05-07T09:54:22;20.90;99.90
33761;DHT22;20084;47.912;19.044;2023-05-07T09:56:50;20.90;99.90
33761;DHT22;20084;47.912;19.044;2023-05-07T09:59:16;20.80;99.90
33761;DHT22;20084;47.912;19.044;2023-05-07T10:01:43;20.80;99.90
33761;DHT22;20084;47.912;19.044;2023-05-07T10:04:09;20.80;99.90
33761;DHT22;20084;47.912;19.044;2023-05-07T10:06:35;20.80;99.90
33761;DHT22;20084;47.912;19.044;2023-05-07T10:09:01;20.70;99.90
33761;DHT22;20084;47.912;19.044;2023-05-07T10:11:27;20.70;99.90
33761;DHT22;20084;47.912;19.044;2023-05-07T10:13:53;20.60;99.90
33761;DHT22;20084;47.912;19.044;2023-05-07T10:16:18;20.70;99.90
33761;DHT22;20084;47.912;19.044;2023-05-07T10:18:45;20.80;99.90
33761;DHT22;20084;47.912;19.044;2023-05-07T10:21:11;20.90;99.90
33761;DHT22;20084;47.912;19.044;2023-05-07T10:23:40;20.90;99.90
33761;DHT22;20084;47.912;19.044;2023-05-07T10:26:06;20.90;99.90
33761;DHT22;20084;47.912;19.044;2023-05-07T10:28:34;20.90;99.90
33761;DHT22;20084;47.912;19.044;2023-05-07T10:33:30;21.10;99.90
33761;DHT22;20084;47.912;19.044;2023-05-07T10:35:57;21.10;99.90
33761;DHT22;20084;47.912;19.044;2023-05-07T10:38:24;21.10;99.90
33761;DHT22;20084;47.912;19.044;2023-05-07T10:40:50;21.00;99.90
33761;DHT22;20084;47.912;19.044;2023-05-07T10:43:16;21.10;99.90
33761;DHT22;20084;47.912;19.044;2023-05-07T10:45:41;21.20;99.90
33761;DHT22;20084;47.912;19.044;2023-05-07T10:50:36;21.20;99.90
33761;DHT22;20084;47.912;19.044;2023-05-07T10:55:49;21.60;99.90
33761;DHT22;20084;47.912;19.044;2023-05-07T11:00:47;22.00;99.90
33761;DHT22;20084;47.912;19.044;2023-05-07T11:03:13;22.20;99.90
33761;DHT22;20084;47.912;19.044;2023-05-07T11:05:40;22.20;99.90
33761;DHT22;20084;47.912;19.044;2023-05-07T11:08:06;22.30;99.90
33761;DHT22;20084;47.912;19.044;2023-05-07T11:10:47;22.40;99.10
33761;DHT22;20084;47.912;19.044;2023-05-07T11:13:13;22.40;99.90
33761;DHT22;20084;47.912;19.044;2023-05-07T11:15:40;22.30;99.90
33761;DHT22;20084;47.912;19.044;2023-05-07T11:18:07;22.30;99.70
33761;DHT22;20084;47.912;19.044;2023-05-07T11:26:04;22.60;99.90
33761;DHT22;20084;47.912;19.044;2023-05-07T11:28:30;22.60;99.90
33761;DHT22;20084;47.912;19.044;2023-05-07T11:30:56;22.50;99.90
33761;DHT22;20084;47.912;19.044;2023-05-07T11:33:22;22.40;99.90
33761;DHT22;20084;47.912;19.044;2023-05-07T11:35:47;22.30;99.90
33761;DHT22;20084;47.912;19.044;2023-05-07T11:38:13;22.10;99.90
33761;DHT22;20084;47.912;19.044;2023-05-07T11:43:33;22.30;99.90
33761;DHT22;20084;47.912;19.044;2023-05-07T11:48:32;22.70;99.90
33761;DHT22;20084;47.912;19.044;2023-05-07T11:53:27;22.80;99.90
33761;DHT22;20084;47.912;19.044;2023-05-07T11:55:53;22.70;99.90
33761;DHT22;20084;47.912;19.044;2023-05-07T11:58:20;22.60;99.90
33761;DHT22;20084;47.912;19.044;2023-05-07T12:00:49;22.50;99.90
33761;DHT22;20084;47.912;19.044;2023-05-07T12:03:15;22.20;99.90
33761;DHT22;20084;47.912;19.044;2023-05-07T12:05:40;22.20;99.90
33761;DHT22;20084;47.912;19.044;2023-05-07T12:08:07;22.30;99.90
33761;DHT22;20084;47.912;19.044;2023-05-07T12:10:32;22.50;99.90
33761;DHT22;20084;47.912;19.044;2023-05-07T12:12:58;22.50;99.90
33761;DHT22;20084;47.912;19.044;2023-05-07T12:15:23;22.50;99.90
33761;DHT22;20084;47.912;19.044;2023-05-07T12:17:49;22.20;99.80
33761;DHT22;20084;47.912;19.044;2023-05-07T12:20:15;22.10;99.80
33761;DHT22;20084;47.912;19.044;2023-05-07T12:22:42;22.10;99.80
33761;DHT22;20084;47.912;19.044;2023-05-07T12:25:07;22.00;99.10
33761;DHT22;20084;47.912;19.044;2023-05-07T12:27:36;22.10;99.90
33761;DHT22;20084;47.912;19.044;2023-05-07T12:30:02;22.30;99.90
33761;DHT22;20084;47.912;19.044;2023-05-07T12:32:27;22.50;99.90
33761;DHT22;20084;47.912;19.044;2023-05-07T12:34:53;22.50;99.90
33761;DHT22;20084;47.912;19.044;2023-05-07T12:37:23;22.30;99.10
33761;DHT22;20084;47.912;19.044;2023-05-07T12:39:49;22.20;99.80
33761;DHT22;20084;47.912;19.044;2023-05-07T12:42:15;22.20;99.90
33761;DHT22;20084;47.912;19.044;2023-05-07T12:44:41;22.20;99.90
33761;DHT22;20084;47.912;19.044;2023-05-07T12:47:07;22.30;99.90
33761;DHT22;20084;47.912;19.044;2023-05-07T12:49:34;22.40;99.10
33761;DHT22;20084;47.912;19.044;2023-05-07T12:51:59;22.50;99.40
33761;DHT22;20084;47.912;19.044;2023-05-07T12:57:04;22.00;99.80
33761;DHT22;20084;47.912;19.044;2023-05-07T12:59:31;21.80;99.90
33761;DHT22;20084;47.912;19.044;2023-05-07T13:01:56;21.60;99.90
33761;DHT22;20084;47.912;19.044;2023-05-07T13:04:24;21.50;99.90
33761;DHT22;20084;47.912;19.044;2023-05-07T13:06:49;21.30;99.80
33761;DHT22;20084;47.912;19.044;2023-05-07T13:09:15;21.00;99.90
33761;DHT22;20084;47.912;19.044;2023-05-07T13:11:40;20.90;99.90
33761;DHT22;20084;47.912;19.044;2023-05-07T13:14:06;20.90;99.90
33761;DHT22;20084;47.912;19.044;2023-05-07T13:16:32;20.90;99.90
33761;DHT22;20084;47.912;19.044;2023-05-07T13:18:57;20.90;99.90
33761;DHT22;20084;47.912;19.044;2023-05-07T13:21:23;20.80;99.90
33761;DHT22;20084;47.912;19.044;2023-05-07T13:23:48;20.70;99.90
33761;DHT22;20084;47.912;19.044;2023-05-07T13:26:14;20.70;99.90
33761;DHT22;20084;47.912;19.044;2023-05-07T13:28:39;20.80;99.90
33761;DHT22;20084;47.912;19.044;2023-05-07T13:31:05;21.20;99.90
33761;DHT22;20084;47.912;19.044;2023-05-07T13:33:31;21.40;99.90
33761;DHT22;20084;47.912;19.044;2023-05-07T13:35:56;21.60;99.30
33761;DHT22;20084;47.912;19.044;2023-05-07T13:38:22;21.60;99.90
33761;DHT22;20084;47.912;19.044;2023-05-07T13:40:47;21.90;99.90
33761;DHT22;20084;47.912;19.044;2023-05-07T13:43:13;22.10;99.50
33761;DHT22;20084;47.912;19.044;2023-05-07T13:45:39;22.30;95.90
33761;DHT22;20084;47.912;19.044;2023-05-07T13:48:05;22.20;96.80
33761;DHT22;20084;47.912;19.044;2023-05-07T13:50:30;22.30;96.40
33761;DHT22;20084;47.912;19.044;2023-05-07T13:52:56;22.30;94.20
33761;DHT22;20084;47.912;19.044;2023-05-07T13:55:23;22.30;94.30
33761;DHT22;20084;47.912;19.044;2023-05-07T13:57:54;22.20;96.20
33761;DHT22;20084;47.912;19.044;2023-05-07T14:00:20;22.30;98.00
33761;DHT22;20084;47.912;19.044;2023-05-07T14:02:45;22.40;98.50
33761;DHT22;20084;47.912;19.044;2023-05-07T14:05:11;22.40;97.70
33761;DHT22;20084;47.912;19.044;2023-05-07T14:07:38;22.40;98.20
33761;DHT22;20084;47.912;19.044;2023-05-07T14:10:04;22.40;96.80
33761;DHT22;20084;47.912;19.044;2023-05-07T14:12:31;22.40;97.40
33761;DHT22;20084;47.912;19.044;2023-05-07T14:14:56;22.40;93.50
33761;DHT22;20084;47.912;19.044;2023-05-07T14:17:22;22.40;94.30
33761;DHT22;20084;47.912;19.044;2023-05-07T14:19:50;22.40;93.70
33761;DHT22;20084;47.912;19.044;2023-05-07T14:22:16;22.20;92.00
33761;DHT22;20084;47.912;19.044;2023-05-07T14:24:41;22.00;93.10
33761;DHT22;20084;47.912;19.044;2023-05-07T14:27:07;22.10;94.70
33761;DHT22;20084;47.912;19.044;2023-05-07T14:29:32;22.10;93.00
33761;DHT22;20084;47.912;19.044;2023-05-07T14:31:58;22.20;91.50
33761;DHT22;20084;47.912;19.044;2023-05-07T14:34:23;22.10;90.80
33761;DHT22;20084;47.912;19.044;2023-05-07T14:36:49;22.10;89.90
33761;DHT22;20084;47.912;19.044;2023-05-07T14:39:14;22.20;92.60
33761;DHT22;20084;47.912;19.044;2023-05-07T14:41:40;22.20;92.60
33761;DHT22;20084;47.912;19.044;2023-05-07T14:44:05;22.30;93.20
33761;DHT22;20084;47.912;19.044;2023-05-07T14:46:31;22.30;92.00
33761;DHT22;20084;47.912;19.044;2023-05-07T14:48:57;22.30;88.30
33761;DHT22;20084;47.912;19.044;2023-05-07T14:51:23;22.20;90.90
33761;DHT22;20084;47.912;19.044;2023-05-07T14:53:49;22.20;89.10
33761;DHT22;20084;47.912;19.044;2023-05-07T14:56:15;22.10;91.00
33761;DHT22;20084;47.912;19.044;2023-05-07T14:58:42;22.10;88.50
33761;DHT22;20084;47.912;19.044;2023-05-07T15:01:08;22.10;89.60
33761;DHT22;20084;47.912;19.044;2023-05-07T15:03:33;21.90;90.00
33761;DHT22;20084;47.912;19.044;2023-05-07T15:05:59;21.90;90.10
33761;DHT22;20084;47.912;19.044;2023-05-07T15:08:25;21.80;90.00
33761;DHT22;20084;47.912;19.044;2023-05-07T15:10:51;21.80;91.80
33761;DHT22;20084;47.912;19.044;2023-05-07T15:13:16;21.90;90.70
33761;DHT22;20084;47.912;19.044;2023-05-07T15:15:42;21.90;91.10
33761;DHT22;20084;47.912;19.044;2023-05-07T15:18:09;21.90;89.50
33761;DHT22;20084;47.912;19.044;2023-05-07T15:20:35;21.90;87.80
33761;DHT22;20084;47.912;19.044;2023-05-07T15:23:01;21.80;89.00
33761;DHT22;20084;47.912;19.044;2023-05-07T15:25:26;21.70;86.50
33761;DHT22;20084;47.912;19.044;2023-05-07T15:27:52;21.70;85.40
33761;DHT22;20084;47.912;19.044;2023-05-07T15:30:17;21.60;90.40
33761;DHT22;20084;47.912;19.044;2023-05-07T15:32:45;21.60;91.10